CET54K KDCA-KCHS
Flight info
| Callsign | CET54K |
|---|---|
| Flight time | 1h 4m |
| Altitude | 34000 |
| Route | AMEEE1 SCOOB DFENC Q109 JOHAR AMYLU AMYLU3 |
| Aircraft | E195/M-SDE3GILORVW/S |
Departure
| Time | 2026-04-21 18:29 |
|---|---|
| Airport | Ronald Reagan Washington National Airport (KDCA) |
Arrival
| Time | 2026-04-21 19:33 |
|---|---|
| Airport | Charleston International Airport (KCHS) |
| Time | Latitude | Longitude | Altitude | Speed | Heading |
|---|---|---|---|---|---|
| 2026-04-21 18:17 | 38.85370 | -77.04109 | 23 ft | 0 kts | 327° |
| 2026-04-21 18:23 | 38.85366 | -77.04106 | 23 ft | 3 kts | 327° |
| 2026-04-21 18:23 | 38.85344 | -77.04088 | 23 ft | 2 kts | 327° |
| 2026-04-21 18:23 | 38.85329 | -77.04076 | 23 ft | 4 kts | 30° |
| 2026-04-21 18:24 | 38.85320 | -77.04092 | 23 ft | 1 kts | 72° |
| 2026-04-21 18:24 | 38.85325 | -77.04072 | 23 ft | 0 kts | 72° |
| 2026-04-21 18:25 | 38.85328 | -77.04060 | 23 ft | 4 kts | 71° |
| 2026-04-21 18:26 | 38.85340 | -77.04014 | 25 ft | 7 kts | 71° |
| 2026-04-21 18:26 | 38.85381 | -77.03998 | 24 ft | 8 kts | 352° |
| 2026-04-21 18:26 | 38.85446 | -77.04007 | 25 ft | 11 kts | 354° |
| 2026-04-21 18:26 | 38.85533 | -77.04025 | 24 ft | 14 kts | 347° |
| 2026-04-21 18:27 | 38.85641 | -77.04043 | 23 ft | 17 kts | 355° |
| 2026-04-21 18:27 | 38.85768 | -77.04056 | 24 ft | 19 kts | 355° |
| 2026-04-21 18:27 | 38.85902 | -77.04063 | 24 ft | 13 kts | 9° |
| 2026-04-21 18:27 | 38.85998 | -77.04020 | 23 ft | 16 kts | 34° |
| 2026-04-21 18:28 | 38.86056 | -77.03953 | 23 ft | 18 kts | 49° |
| 2026-04-21 18:28 | 38.86052 | -77.03867 | 22 ft | 11 kts | 170° |
| 2026-04-21 18:28 | 38.86037 | -77.03865 | 22 ft | 1 kts | 173° |
| 2026-04-21 18:28 | 38.86014 | -77.03862 | 23 ft | 8 kts | 175° |
| 2026-04-21 18:29 | 38.85726 | -77.03833 | 23 ft | 78 kts | 175° |
| 2026-04-21 18:29 | 38.84956 | -77.03748 | 43 ft | 140 kts | 175° |
| 2026-04-21 18:29 | 38.83925 | -77.03667 | 698 ft | 153 kts | 178° |
| 2026-04-21 18:29 | 38.82925 | -77.03627 | 994 ft | 147 kts | 178° |
| 2026-04-21 18:30 | 38.81823 | -77.03399 | 1387 ft | 166 kts | 168° |
| 2026-04-21 18:30 | 38.80661 | -77.03054 | 2007 ft | 177 kts | 170° |
| 2026-04-21 18:30 | 38.79408 | -77.02738 | 2573 ft | 191 kts | 171° |
| 2026-04-21 18:30 | 38.78057 | -77.02435 | 3117 ft | 203 kts | 172° |
| 2026-04-21 18:31 | 38.76641 | -77.02127 | 3686 ft | 212 kts | 172° |
| 2026-04-21 18:31 | 38.75163 | -77.01710 | 4160 ft | 224 kts | 163° |
| 2026-04-21 18:31 | 38.73756 | -77.00712 | 4642 ft | 237 kts | 148° |
| 2026-04-21 18:31 | 38.72396 | -76.99467 | 5186 ft | 244 kts | 146° |
| 2026-04-21 18:32 | 38.70998 | -76.98185 | 5725 ft | 251 kts | 146° |
| 2026-04-21 18:32 | 38.69543 | -76.96878 | 6322 ft | 260 kts | 146° |
| 2026-04-21 18:32 | 38.67962 | -76.95470 | 6505 ft | 292 kts | 146° |
| 2026-04-21 18:32 | 38.66253 | -76.93950 | 7125 ft | 304 kts | 146° |
| 2026-04-21 18:33 | 38.64498 | -76.92390 | 7822 ft | 310 kts | 146° |
| 2026-04-21 18:33 | 38.62712 | -76.90807 | 8595 ft | 315 kts | 146° |
| 2026-04-21 18:33 | 38.60903 | -76.89202 | 9371 ft | 319 kts | 146° |
| 2026-04-21 18:33 | 38.59063 | -76.87567 | 10173 ft | 324 kts | 145° |
| 2026-04-21 18:34 | 38.57147 | -76.85863 | 10529 ft | 346 kts | 144° |
| 2026-04-21 18:34 | 38.55149 | -76.84078 | 11194 ft | 354 kts | 145° |
| 2026-04-21 18:34 | 38.53120 | -76.82265 | 12035 ft | 357 kts | 144° |
| 2026-04-21 18:34 | 38.51081 | -76.80435 | 12927 ft | 360 kts | 144° |
| 2026-04-21 18:35 | 38.49046 | -76.78614 | 13826 ft | 365 kts | 144° |
| 2026-04-21 18:35 | 38.46955 | -76.76748 | 14680 ft | 370 kts | 144° |
| 2026-04-21 18:35 | 38.44801 | -76.74823 | 15505 ft | 375 kts | 144° |
| 2026-04-21 18:35 | 38.42675 | -76.72928 | 16280 ft | 381 kts | 144° |
| 2026-04-21 18:36 | 38.40362 | -76.71248 | 17009 ft | 386 kts | 162° |
| 2026-04-21 18:36 | 38.37736 | -76.70525 | 17796 ft | 387 kts | 177° |
| 2026-04-21 18:36 | 38.35041 | -76.70217 | 18561 ft | 392 kts | 178° |
| 2026-04-21 18:36 | 38.32312 | -76.69866 | 19286 ft | 397 kts | 177° |
| 2026-04-21 18:37 | 38.29551 | -76.69457 | 20000 ft | 401 kts | 176° |
| 2026-04-21 18:37 | 38.26768 | -76.69023 | 20689 ft | 406 kts | 176° |
| 2026-04-21 18:37 | 38.23951 | -76.68580 | 21339 ft | 410 kts | 176° |
| 2026-04-21 18:37 | 38.21109 | -76.68133 | 21975 ft | 414 kts | 176° |
| 2026-04-21 18:38 | 38.18236 | -76.67683 | 22595 ft | 418 kts | 176° |
| 2026-04-21 18:38 | 38.15339 | -76.67232 | 23215 ft | 422 kts | 176° |
| 2026-04-21 18:38 | 38.12412 | -76.66778 | 23818 ft | 425 kts | 177° |
| 2026-04-21 18:38 | 38.09457 | -76.66326 | 24377 ft | 429 kts | 177° |
| 2026-04-21 18:39 | 38.06483 | -76.66032 | 24921 ft | 430 kts | 182° |
| 2026-04-21 18:39 | 38.03481 | -76.65892 | 25461 ft | 433 kts | 182° |
| 2026-04-21 18:39 | 38.00459 | -76.65732 | 25982 ft | 437 kts | 181° |
| 2026-04-21 18:39 | 37.97413 | -76.65548 | 26493 ft | 440 kts | 181° |
| 2026-04-21 18:40 | 37.94344 | -76.65352 | 26981 ft | 444 kts | 181° |
| 2026-04-21 18:40 | 37.91249 | -76.65150 | 27455 ft | 447 kts | 181° |
| 2026-04-21 18:40 | 37.89185 | -76.65013 | 27781 ft | 449 kts | 181° |
| 2026-04-21 18:40 | 37.84994 | -76.64736 | 28386 ft | 453 kts | 181° |
| 2026-04-21 18:41 | 37.81880 | -76.64528 | 28829 ft | 456 kts | 181° |
| 2026-04-21 18:41 | 37.78705 | -76.64318 | 29257 ft | 459 kts | 181° |
| 2026-04-21 18:41 | 37.75520 | -76.64104 | 29835 ft | 457 kts | 181° |
| 2026-04-21 18:41 | 37.72345 | -76.63891 | 30435 ft | 456 kts | 181° |
| 2026-04-21 18:42 | 37.69182 | -76.63681 | 30927 ft | 455 kts | 181° |
| 2026-04-21 18:42 | 37.66021 | -76.63470 | 31387 ft | 454 kts | 181° |
| 2026-04-21 18:42 | 37.62871 | -76.63263 | 31836 ft | 453 kts | 181° |
| 2026-04-21 18:42 | 37.59731 | -76.63098 | 32246 ft | 451 kts | 185° |
| 2026-04-21 18:43 | 37.56642 | -76.63520 | 32628 ft | 444 kts | 195° |
| 2026-04-21 18:43 | 37.53633 | -76.64315 | 33025 ft | 441 kts | 198° |
| 2026-04-21 18:43 | 37.50633 | -76.65155 | 33416 ft | 441 kts | 198° |
| 2026-04-21 18:43 | 37.47637 | -76.65969 | 33785 ft | 441 kts | 197° |
| 2026-04-21 18:44 | 37.44640 | -76.66761 | 34145 ft | 440 kts | 197° |
| 2026-04-21 18:44 | 37.41650 | -76.67540 | 34544 ft | 437 kts | 197° |
| 2026-04-21 18:44 | 37.38643 | -76.68325 | 34517 ft | 442 kts | 197° |
| 2026-04-21 18:45 | 37.32597 | -76.69902 | 34360 ft | 445 kts | 197° |
| 2026-04-21 18:45 | 37.26543 | -76.71473 | 34372 ft | 445 kts | 197° |
| 2026-04-21 18:46 | 37.20477 | -76.73046 | 34367 ft | 445 kts | 197° |
| 2026-04-21 18:46 | 37.14426 | -76.74608 | 34378 ft | 444 kts | 197° |
| 2026-04-21 18:47 | 37.08377 | -76.76172 | 34393 ft | 444 kts | 197° |
| 2026-04-21 18:47 | 37.02327 | -76.77732 | 34397 ft | 444 kts | 197° |
| 2026-04-21 18:48 | 36.96204 | -76.79313 | 34414 ft | 456 kts | 198° |
| 2026-04-21 18:48 | 36.89926 | -76.80930 | 34390 ft | 472 kts | 197° |
| 2026-04-21 18:49 | 36.83401 | -76.82604 | 34393 ft | 485 kts | 197° |
| 2026-04-21 18:49 | 36.77839 | -76.84026 | 34394 ft | 488 kts | 197° |
| 2026-04-21 18:50 | 36.70090 | -76.86002 | 34386 ft | 489 kts | 197° |
| 2026-04-21 18:50 | 36.63437 | -76.87699 | 34387 ft | 487 kts | 197° |
| 2026-04-21 18:51 | 36.56797 | -76.89391 | 34392 ft | 488 kts | 197° |
| 2026-04-21 18:51 | 36.50145 | -76.91082 | 34382 ft | 487 kts | 198° |
| 2026-04-21 18:52 | 36.43502 | -76.92768 | 34405 ft | 487 kts | 198° |
| 2026-04-21 18:52 | 36.36857 | -76.94452 | 34405 ft | 487 kts | 198° |
| 2026-04-21 18:53 | 36.30211 | -76.96133 | 34404 ft | 487 kts | 198° |
| 2026-04-21 18:53 | 36.23563 | -76.97811 | 34401 ft | 489 kts | 198° |
| 2026-04-21 18:54 | 36.16900 | -76.99491 | 34402 ft | 488 kts | 198° |
| 2026-04-21 18:54 | 36.10289 | -77.01154 | 34402 ft | 488 kts | 198° |
| 2026-04-21 18:55 | 36.04711 | -77.02556 | 34403 ft | 488 kts | 198° |
| 2026-04-21 18:55 | 35.96962 | -77.04500 | 34407 ft | 490 kts | 198° |
| 2026-04-21 18:56 | 35.90616 | -77.07003 | 34431 ft | 465 kts | 222° |
| 2026-04-21 18:56 | 35.85603 | -77.11898 | 34387 ft | 459 kts | 227° |
| 2026-04-21 18:57 | 35.80647 | -77.16836 | 34380 ft | 458 kts | 227° |
| 2026-04-21 18:57 | 35.75673 | -77.21748 | 34392 ft | 458 kts | 227° |
| 2026-04-21 18:58 | 35.70690 | -77.26644 | 34393 ft | 458 kts | 227° |
| 2026-04-21 18:58 | 35.65715 | -77.31537 | 34392 ft | 458 kts | 228° |
| 2026-04-21 18:59 | 35.60745 | -77.36427 | 34397 ft | 458 kts | 227° |
| 2026-04-21 18:59 | 35.55762 | -77.41303 | 34397 ft | 458 kts | 228° |
| 2026-04-21 19:00 | 35.50772 | -77.46172 | 34408 ft | 458 kts | 228° |
| 2026-04-21 19:00 | 35.45780 | -77.51033 | 34396 ft | 458 kts | 228° |
| 2026-04-21 19:01 | 35.40786 | -77.55889 | 34395 ft | 458 kts | 228° |
| 2026-04-21 19:01 | 35.35794 | -77.60733 | 34408 ft | 456 kts | 228° |
| 2026-04-21 19:02 | 35.30849 | -77.65524 | 34395 ft | 456 kts | 228° |
| 2026-04-21 19:02 | 35.25869 | -77.70342 | 34397 ft | 456 kts | 228° |
| 2026-04-21 19:03 | 35.20883 | -77.75159 | 34396 ft | 457 kts | 228° |
| 2026-04-21 19:03 | 35.15896 | -77.79967 | 34401 ft | 457 kts | 228° |
| 2026-04-21 19:04 | 35.10910 | -77.84769 | 34380 ft | 456 kts | 227° |
| 2026-04-21 19:04 | 35.05926 | -77.89559 | 34389 ft | 456 kts | 227° |
| 2026-04-21 19:05 | 35.00938 | -77.94346 | 34387 ft | 456 kts | 227° |
| 2026-04-21 19:05 | 34.95964 | -77.99111 | 34387 ft | 454 kts | 227° |
| 2026-04-21 19:06 | 34.90994 | -78.03869 | 34378 ft | 455 kts | 227° |
| 2026-04-21 19:06 | 34.86022 | -78.08617 | 34379 ft | 454 kts | 227° |
| 2026-04-21 19:07 | 34.81055 | -78.13376 | 34369 ft | 454 kts | 227° |
| 2026-04-21 19:07 | 34.76098 | -78.18140 | 34371 ft | 454 kts | 227° |
| 2026-04-21 19:08 | 34.71138 | -78.22895 | 34374 ft | 454 kts | 227° |
| 2026-04-21 19:08 | 34.66177 | -78.27646 | 34384 ft | 454 kts | 227° |
| 2026-04-21 19:09 | 34.61207 | -78.32396 | 34374 ft | 454 kts | 227° |
| 2026-04-21 19:09 | 34.56238 | -78.37137 | 34373 ft | 454 kts | 227° |
| 2026-04-21 19:10 | 34.51301 | -78.41841 | 34372 ft | 454 kts | 227° |
| 2026-04-21 19:10 | 34.46328 | -78.46572 | 34374 ft | 454 kts | 227° |
| 2026-04-21 19:11 | 34.41352 | -78.51299 | 34366 ft | 455 kts | 227° |
| 2026-04-21 19:11 | 34.36378 | -78.56016 | 34379 ft | 454 kts | 226° |
| 2026-04-21 19:12 | 34.32324 | -78.60017 | 34396 ft | 447 kts | 232° |
| 2026-04-21 19:12 | 34.27147 | -78.66185 | 34377 ft | 446 kts | 233° |
| 2026-04-21 19:13 | 34.22747 | -78.71457 | 34258 ft | 441 kts | 233° |
| 2026-04-21 19:13 | 34.20593 | -78.74023 | 33891 ft | 427 kts | 233° |
| 2026-04-21 19:13 | 34.18519 | -78.76494 | 33454 ft | 416 kts | 233° |
| 2026-04-21 19:13 | 34.16474 | -78.78940 | 32886 ft | 410 kts | 233° |
| 2026-04-21 19:14 | 34.14461 | -78.81345 | 32319 ft | 404 kts | 233° |
| 2026-04-21 19:14 | 34.12477 | -78.83715 | 31790 ft | 398 kts | 233° |
| 2026-04-21 19:14 | 34.10518 | -78.86054 | 31281 ft | 395 kts | 233° |
| 2026-04-21 19:14 | 34.08569 | -78.88382 | 30747 ft | 396 kts | 233° |
| 2026-04-21 19:15 | 34.06599 | -78.90739 | 30180 ft | 402 kts | 233° |
| 2026-04-21 19:15 | 34.04602 | -78.93120 | 29689 ft | 406 kts | 233° |
| 2026-04-21 19:15 | 34.02582 | -78.95526 | 29123 ft | 410 kts | 233° |
| 2026-04-21 19:15 | 34.00546 | -78.97942 | 28582 ft | 411 kts | 232° |
| 2026-04-21 19:16 | 33.98525 | -79.00334 | 28410 ft | 402 kts | 232° |
| 2026-04-21 19:16 | 33.94519 | -79.05086 | 28251 ft | 408 kts | 232° |
| 2026-04-21 19:16 | 33.92496 | -79.07496 | 27115 ft | 419 kts | 232° |
| 2026-04-21 19:17 | 33.88291 | -79.12474 | 25334 ft | 420 kts | 231° |
| 2026-04-21 19:17 | 33.86219 | -79.14914 | 24726 ft | 413 kts | 231° |
| 2026-04-21 19:17 | 33.84185 | -79.17312 | 24193 ft | 406 kts | 231° |
| 2026-04-21 19:18 | 33.82182 | -79.19676 | 23605 ft | 400 kts | 231° |
| 2026-04-21 19:18 | 33.80221 | -79.21985 | 23122 ft | 390 kts | 231° |
| 2026-04-21 19:18 | 33.78213 | -79.24154 | 22605 ft | 389 kts | 223° |
| 2026-04-21 19:18 | 33.75960 | -79.25926 | 22104 ft | 386 kts | 218° |
| 2026-04-21 19:19 | 33.73684 | -79.27609 | 21587 ft | 382 kts | 218° |
| 2026-04-21 19:19 | 33.71430 | -79.29291 | 21088 ft | 381 kts | 218° |
| 2026-04-21 19:19 | 33.69183 | -79.30988 | 20582 ft | 382 kts | 218° |
| 2026-04-21 19:19 | 33.66934 | -79.32686 | 20029 ft | 382 kts | 218° |
| 2026-04-21 19:20 | 33.64662 | -79.34407 | 19157 ft | 390 kts | 218° |
| 2026-04-21 19:20 | 33.63147 | -79.35547 | 18878 ft | 385 kts | 217° |
| 2026-04-21 19:20 | 33.60897 | -79.37245 | 18318 ft | 380 kts | 218° |
| 2026-04-21 19:20 | 33.58682 | -79.38918 | 17856 ft | 373 kts | 217° |
| 2026-04-21 19:21 | 33.56501 | -79.40564 | 17353 ft | 368 kts | 217° |
| 2026-04-21 19:21 | 33.54355 | -79.42188 | 16875 ft | 363 kts | 217° |
| 2026-04-21 19:21 | 33.52229 | -79.43801 | 16404 ft | 359 kts | 217° |
| 2026-04-21 19:21 | 33.50117 | -79.45385 | 15910 ft | 357 kts | 216° |
| 2026-04-21 19:22 | 33.48016 | -79.46963 | 15457 ft | 356 kts | 216° |
| 2026-04-21 19:22 | 33.45921 | -79.48543 | 14978 ft | 356 kts | 216° |
| 2026-04-21 19:22 | 33.43830 | -79.50117 | 14502 ft | 354 kts | 216° |
| 2026-04-21 19:22 | 33.41755 | -79.51675 | 14015 ft | 350 kts | 216° |
| 2026-04-21 19:23 | 33.39708 | -79.53212 | 13569 ft | 345 kts | 216° |
| 2026-04-21 19:23 | 33.37691 | -79.54723 | 13115 ft | 340 kts | 215° |
| 2026-04-21 19:23 | 33.35703 | -79.56216 | 12667 ft | 336 kts | 215° |
| 2026-04-21 19:23 | 33.33734 | -79.57693 | 12226 ft | 332 kts | 215° |
| 2026-04-21 19:24 | 33.31797 | -79.59166 | 11779 ft | 329 kts | 215° |
| 2026-04-21 19:24 | 33.29883 | -79.60619 | 11432 ft | 323 kts | 215° |
| 2026-04-21 19:24 | 33.28003 | -79.62048 | 10902 ft | 323 kts | 215° |
| 2026-04-21 19:24 | 33.26091 | -79.63502 | 10357 ft | 325 kts | 214° |
| 2026-04-21 19:25 | 33.24186 | -79.64942 | 9928 ft | 321 kts | 214° |
| 2026-04-21 19:25 | 33.22353 | -79.66327 | 9824 ft | 308 kts | 214° |
| 2026-04-21 19:25 | 33.20742 | -79.67994 | 9368 ft | 300 kts | 238° |
| 2026-04-21 19:25 | 33.19764 | -79.70080 | 9361 ft | 287 kts | 248° |
| 2026-04-21 19:26 | 33.18893 | -79.72229 | 9297 ft | 291 kts | 247° |
| 2026-04-21 19:26 | 33.17965 | -79.74461 | 8474 ft | 307 kts | 247° |
| 2026-04-21 19:26 | 33.16999 | -79.76780 | 7627 ft | 317 kts | 247° |
| 2026-04-21 19:26 | 33.16007 | -79.79148 | 7079 ft | 317 kts | 246° |
| 2026-04-21 19:27 | 33.15019 | -79.81469 | 6628 ft | 311 kts | 245° |
| 2026-04-21 19:27 | 33.14046 | -79.83747 | 6226 ft | 304 kts | 244° |
| 2026-04-21 19:27 | 33.13096 | -79.85971 | 5830 ft | 299 kts | 244° |
| 2026-04-21 19:27 | 33.12160 | -79.88164 | 5428 ft | 294 kts | 244° |
| 2026-04-21 19:28 | 33.11239 | -79.90314 | 5053 ft | 289 kts | 244° |
| 2026-04-21 19:28 | 33.10327 | -79.92436 | 4653 ft | 286 kts | 244° |
| 2026-04-21 19:28 | 33.09426 | -79.94532 | 4309 ft | 281 kts | 243° |
| 2026-04-21 19:28 | 33.08535 | -79.96599 | 3940 ft | 279 kts | 243° |
| 2026-04-21 19:29 | 33.07651 | -79.98648 | 3561 ft | 278 kts | 242° |
| 2026-04-21 19:29 | 33.06769 | -80.00686 | 3215 ft | 276 kts | 242° |
| 2026-04-21 19:29 | 33.05877 | -80.02699 | 2978 ft | 271 kts | 237° |
| 2026-04-21 19:29 | 33.04680 | -80.04306 | 3009 ft | 252 kts | 216° |
| 2026-04-21 19:30 | 33.03264 | -80.05439 | 2960 ft | 238 kts | 211° |
| 2026-04-21 19:30 | 33.01930 | -80.06482 | 3029 ft | 220 kts | 212° |
| 2026-04-21 19:30 | 33.00743 | -80.07499 | 3011 ft | 202 kts | 213° |
| 2026-04-21 19:30 | 32.99632 | -80.08413 | 2972 ft | 187 kts | 207° |
| 2026-04-21 19:31 | 32.98446 | -80.09079 | 2570 ft | 191 kts | 196° |
| 2026-04-21 19:31 | 32.97176 | -80.09408 | 2244 ft | 182 kts | 174° |
| 2026-04-21 19:31 | 32.96088 | -80.08973 | 2071 ft | 159 kts | 138° |
| 2026-04-21 19:31 | 32.95214 | -80.08131 | 1618 ft | 162 kts | 136° |
| 2026-04-21 19:32 | 32.94328 | -80.07271 | 1176 ft | 163 kts | 136° |
| 2026-04-21 19:32 | 32.93433 | -80.06489 | 855 ft | 157 kts | 140° |
| 2026-04-21 19:32 | 32.92530 | -80.05773 | 486 ft | 153 kts | 140° |
| 2026-04-21 19:32 | 32.91668 | -80.05090 | 193 ft | 144 kts | 140° |
| 2026-04-21 19:33 | 32.91108 | -80.04667 | 49 ft | 136 kts | 141° |
| 2026-04-21 19:33 | 32.90179 | -80.03957 | 39 ft | 98 kts | 147° |
| 2026-04-21 19:33 | 32.89737 | -80.03627 | 37 ft | 52 kts | 148° |
| 2026-04-21 19:33 | 32.89490 | -80.03586 | 39 ft | 29 kts | 181° |
| 2026-04-21 19:34 | 32.89292 | -80.03590 | 40 ft | 28 kts | 179° |
| 2026-04-21 19:34 | 32.89136 | -80.03596 | 40 ft | 16 kts | 182° |
| 2026-04-21 19:34 | 32.89023 | -80.03603 | 40 ft | 17 kts | 183° |
| 2026-04-21 19:34 | 32.88902 | -80.03618 | 40 ft | 18 kts | 188° |
| 2026-04-21 19:35 | 32.88791 | -80.03637 | 40 ft | 12 kts | 187° |
| 2026-04-21 19:35 | 32.88656 | -80.03659 | 40 ft | 6 kts | 187° |
| 2026-04-21 19:35 | 32.88618 | -80.03682 | 40 ft | 7 kts | 238° |
| 2026-04-21 19:36 | 32.88607 | -80.03718 | 40 ft | 2 kts | 254° |
| 2026-04-21 19:36 | 32.88606 | -80.03722 | 40 ft | 0 kts | 254° |